sensor_id;sensor_type;location;lat;lon;timestamp;P1;durP1;ratioP1;P2;durP2;ratioP2
47882;SDS011;37739;50.350;7.578;2023-03-21T00:01:33;3.10;;;2.03;;
47882;SDS011;37739;50.350;7.578;2023-03-21T00:04:01;4.77;;;2.43;;
47882;SDS011;37739;50.350;7.578;2023-03-21T00:06:29;5.20;;;2.10;;
47882;SDS011;37739;50.350;7.578;2023-03-21T00:08:55;4.33;;;2.10;;
47882;SDS011;37739;50.350;7.578;2023-03-21T00:11:22;4.97;;;2.60;;
47882;SDS011;37739;50.350;7.578;2023-03-21T00:13:50;4.30;;;2.43;;
47882;SDS011;37739;50.350;7.578;2023-03-21T00:16:17;3.40;;;2.53;;
47882;SDS011;37739;50.350;7.578;2023-03-21T00:18:49;3.50;;;2.50;;
47882;SDS011;37739;50.350;7.578;2023-03-21T00:21:18;3.07;;;2.00;;
47882;SDS011;37739;50.350;7.578;2023-03-21T00:23:52;4.60;;;2.40;;
47882;SDS011;37739;50.350;7.578;2023-03-21T00:26:19;3.17;;;2.20;;
47882;SDS011;37739;50.350;7.578;2023-03-21T00:28:46;2.83;;;2.40;;
47882;SDS011;37739;50.350;7.578;2023-03-21T00:31:14;5.23;;;1.87;;
47882;SDS011;37739;50.350;7.578;2023-03-21T00:33:40;4.23;;;2.43;;
47882;SDS011;37739;50.350;7.578;2023-03-21T00:36:06;5.00;;;2.63;;
47882;SDS011;37739;50.350;7.578;2023-03-21T00:38:35;3.17;;;2.30;;
47882;SDS011;37739;50.350;7.578;2023-03-21T00:41:04;3.43;;;2.20;;
47882;SDS011;37739;50.350;7.578;2023-03-21T00:43:33;5.30;;;2.13;;
47882;SDS011;37739;50.350;7.578;2023-03-21T00:46:01;3.30;;;2.40;;
47882;SDS011;37739;50.350;7.578;2023-03-21T00:48:29;2.10;;;1.90;;
47882;SDS011;37739;50.350;7.578;2023-03-21T00:50:57;5.80;;;2.13;;
47882;SDS011;37739;50.350;7.578;2023-03-21T00:53:25;4.80;;;2.07;;
47882;SDS011;37739;50.350;7.578;2023-03-21T00:55:51;2.47;;;1.87;;
47882;SDS011;37739;50.350;7.578;2023-03-21T00:58:19;4.30;;;2.30;;
47882;SDS011;37739;50.350;7.578;2023-03-21T01:00:45;3.50;;;2.37;;
47882;SDS011;37739;50.350;7.578;2023-03-21T01:03:13;3.10;;;2.33;;
47882;SDS011;37739;50.350;7.578;2023-03-21T01:05:40;4.13;;;2.13;;
47882;SDS011;37739;50.350;7.578;2023-03-21T01:08:29;3.20;;;2.50;;
47882;SDS011;37739;50.350;7.578;2023-03-21T01:10:59;4.67;;;2.50;;
47882;SDS011;37739;50.350;7.578;2023-03-21T01:13:26;4.40;;;2.20;;
47882;SDS011;37739;50.350;7.578;2023-03-21T01:15:54;3.30;;;1.90;;
47882;SDS011;37739;50.350;7.578;2023-03-21T01:18:21;3.47;;;2.30;;
47882;SDS011;37739;50.350;7.578;2023-03-21T01:20:51;3.00;;;2.20;;
47882;SDS011;37739;50.350;7.578;2023-03-21T01:23:17;2.87;;;2.43;;
47882;SDS011;37739;50.350;7.578;2023-03-21T01:25:46;3.63;;;2.20;;
47882;SDS011;37739;50.350;7.578;2023-03-21T01:28:12;5.07;;;1.80;;
47882;SDS011;37739;50.350;7.578;2023-03-21T01:30:37;3.50;;;2.50;;
47882;SDS011;37739;50.350;7.578;2023-03-21T01:33:03;3.10;;;2.30;;
47882;SDS011;37739;50.350;7.578;2023-03-21T01:35:28;4.50;;;2.70;;
47882;SDS011;37739;50.350;7.578;2023-03-21T01:37:53;3.20;;;2.10;;
47882;SDS011;37739;50.350;7.578;2023-03-21T01:40:24;5.77;;;2.37;;
47882;SDS011;37739;50.350;7.578;2023-03-21T01:42:50;3.07;;;1.87;;
47882;SDS011;37739;50.350;7.578;2023-03-21T01:48:19;3.40;;;2.27;;
47882;SDS011;37739;50.350;7.578;2023-03-21T01:50:48;4.80;;;2.93;;
47882;SDS011;37739;50.350;7.578;2023-03-21T01:53:18;3.50;;;2.90;;
47882;SDS011;37739;50.350;7.578;2023-03-21T01:55:46;5.73;;;3.60;;
47882;SDS011;37739;50.350;7.578;2023-03-21T01:58:13;3.50;;;3.00;;
47882;SDS011;37739;50.350;7.578;2023-03-21T02:00:43;4.20;;;2.60;;
47882;SDS011;37739;50.350;7.578;2023-03-21T02:03:10;3.63;;;2.57;;
47882;SDS011;37739;50.350;7.578;2023-03-21T02:08:21;5.30;;;2.97;;
47882;SDS011;37739;50.350;7.578;2023-03-21T02:10:47;4.53;;;2.77;;
47882;SDS011;37739;50.350;7.578;2023-03-21T02:13:15;3.43;;;2.60;;
47882;SDS011;37739;50.350;7.578;2023-03-21T02:15:41;4.30;;;2.97;;
47882;SDS011;37739;50.350;7.578;2023-03-21T02:18:35;5.50;;;2.70;;
47882;SDS011;37739;50.350;7.578;2023-03-21T02:31:50;7.70;;;3.13;;
47882;SDS011;37739;50.350;7.578;2023-03-21T02:40:05;4.80;;;3.00;;
47882;SDS011;37739;50.350;7.578;2023-03-21T02:45:57;5.13;;;3.10;;
47882;SDS011;37739;50.350;7.578;2023-03-21T02:48:32;5.30;;;3.40;;
47882;SDS011;37739;50.350;7.578;2023-03-21T02:51:01;4.80;;;3.20;;
47882;SDS011;37739;50.350;7.578;2023-03-21T02:53:33;4.57;;;2.87;;
47882;SDS011;37739;50.350;7.578;2023-03-21T02:56:04;3.97;;;3.03;;
47882;SDS011;37739;50.350;7.578;2023-03-21T02:58:34;5.40;;;3.20;;
47882;SDS011;37739;50.350;7.578;2023-03-21T03:01:03;3.33;;;3.03;;
47882;SDS011;37739;50.350;7.578;2023-03-21T03:03:30;3.83;;;2.70;;
47882;SDS011;37739;50.350;7.578;2023-03-21T03:06:01;6.40;;;3.90;;
47882;SDS011;37739;50.350;7.578;2023-03-21T03:11:25;6.87;;;3.37;;
47882;SDS011;37739;50.350;7.578;2023-03-21T03:19:23;3.67;;;2.93;;
47882;SDS011;37739;50.350;7.578;2023-03-21T03:22:08;4.93;;;2.90;;
47882;SDS011;37739;50.350;7.578;2023-03-21T03:24:51;6.50;;;2.90;;
47882;SDS011;37739;50.350;7.578;2023-03-21T03:27:24;4.73;;;3.30;;
47882;SDS011;37739;50.350;7.578;2023-03-21T03:29:59;4.40;;;2.73;;
47882;SDS011;37739;50.350;7.578;2023-03-21T03:32:51;4.13;;;3.00;;
47882;SDS011;37739;50.350;7.578;2023-03-21T03:35:17;3.73;;;2.37;;
47882;SDS011;37739;50.350;7.578;2023-03-21T03:37:47;5.33;;;2.43;;
47882;SDS011;37739;50.350;7.578;2023-03-21T03:40:18;4.97;;;3.03;;
47882;SDS011;37739;50.350;7.578;2023-03-21T03:42:52;5.33;;;3.37;;
47882;SDS011;37739;50.350;7.578;2023-03-21T03:45:22;5.30;;;3.00;;
47882;SDS011;37739;50.350;7.578;2023-03-21T03:50:33;5.70;;;3.03;;
47882;SDS011;37739;50.350;7.578;2023-03-21T03:53:05;3.80;;;2.73;;
47882;SDS011;37739;50.350;7.578;2023-03-21T03:55:40;3.87;;;2.70;;
47882;SDS011;37739;50.350;7.578;2023-03-21T03:58:09;4.63;;;3.03;;
47882;SDS011;37739;50.350;7.578;2023-03-21T04:00:35;7.17;;;2.90;;
47882;SDS011;37739;50.350;7.578;2023-03-21T04:03:01;4.60;;;2.97;;
47882;SDS011;37739;50.350;7.578;2023-03-21T04:05:31;6.10;;;3.50;;
47882;SDS011;37739;50.350;7.578;2023-03-21T04:07:57;3.53;;;3.17;;
47882;SDS011;37739;50.350;7.578;2023-03-21T04:10:26;5.27;;;2.80;;
47882;SDS011;37739;50.350;7.578;2023-03-21T04:12:56;3.00;;;2.33;;
47882;SDS011;37739;50.350;7.578;2023-03-21T04:15:21;4.13;;;2.87;;
47882;SDS011;37739;50.350;7.578;2023-03-21T04:17:49;4.90;;;3.27;;
47882;SDS011;37739;50.350;7.578;2023-03-21T04:20:17;4.40;;;3.50;;
47882;SDS011;37739;50.350;7.578;2023-03-21T04:22:43;4.17;;;2.87;;
47882;SDS011;37739;50.350;7.578;2023-03-21T04:25:08;4.60;;;2.93;;
47882;SDS011;37739;50.350;7.578;2023-03-21T04:27:34;10.17;;;3.00;;
47882;SDS011;37739;50.350;7.578;2023-03-21T04:30:00;5.40;;;2.87;;
47882;SDS011;37739;50.350;7.578;2023-03-21T04:32:27;5.50;;;3.30;;
47882;SDS011;37739;50.350;7.578;2023-03-21T04:34:55;3.70;;;2.80;;
47882;SDS011;37739;50.350;7.578;2023-03-21T04:37:21;3.30;;;2.70;;
47882;SDS011;37739;50.350;7.578;2023-03-21T04:39:52;3.70;;;2.70;;
47882;SDS011;37739;50.350;7.578;2023-03-21T04:42:18;4.67;;;2.90;;
47882;SDS011;37739;50.350;7.578;2023-03-21T04:44:46;6.20;;;3.80;;
47882;SDS011;37739;50.350;7.578;2023-03-21T04:47:13;4.03;;;2.57;;
47882;SDS011;37739;50.350;7.578;2023-03-21T04:49:40;3.20;;;2.47;;
47882;SDS011;37739;50.350;7.578;2023-03-21T04:52:08;6.43;;;2.90;;
47882;SDS011;37739;50.350;7.578;2023-03-21T04:54:36;3.67;;;2.97;;
47882;SDS011;37739;50.350;7.578;2023-03-21T04:57:01;5.73;;;3.60;;
47882;SDS011;37739;50.350;7.578;2023-03-21T04:59:32;6.50;;;2.90;;
47882;SDS011;37739;50.350;7.578;2023-03-21T05:01:58;4.23;;;2.63;;
47882;SDS011;37739;50.350;7.578;2023-03-21T05:04:26;5.63;;;3.20;;
47882;SDS011;37739;50.350;7.578;2023-03-21T05:06:53;6.03;;;2.63;;
47882;SDS011;37739;50.350;7.578;2023-03-21T05:09:20;6.67;;;3.40;;
47882;SDS011;37739;50.350;7.578;2023-03-21T05:11:47;5.00;;;2.57;;
47882;SDS011;37739;50.350;7.578;2023-03-21T05:14:14;5.63;;;3.40;;
47882;SDS011;37739;50.350;7.578;2023-03-21T05:16:45;4.60;;;2.83;;
47882;SDS011;37739;50.350;7.578;2023-03-21T05:19:17;3.93;;;2.90;;
47882;SDS011;37739;50.350;7.578;2023-03-21T05:21:44;5.50;;;2.90;;
47882;SDS011;37739;50.350;7.578;2023-03-21T05:24:13;5.83;;;2.87;;
47882;SDS011;37739;50.350;7.578;2023-03-21T05:26:43;5.80;;;3.03;;
47882;SDS011;37739;50.350;7.578;2023-03-21T05:29:14;6.27;;;3.10;;
47882;SDS011;37739;50.350;7.578;2023-03-21T05:31:41;3.73;;;2.90;;
47882;SDS011;37739;50.350;7.578;2023-03-21T05:34:07;6.90;;;3.60;;
47882;SDS011;37739;50.350;7.578;2023-03-21T05:36:35;7.23;;;3.00;;
47882;SDS011;37739;50.350;7.578;2023-03-21T05:39:03;6.10;;;3.13;;
47882;SDS011;37739;50.350;7.578;2023-03-21T05:41:29;3.97;;;2.93;;
47882;SDS011;37739;50.350;7.578;2023-03-21T05:43:56;4.23;;;2.77;;
47882;SDS011;37739;50.350;7.578;2023-03-21T05:46:24;4.87;;;3.40;;
47882;SDS011;37739;50.350;7.578;2023-03-21T05:48:49;2.87;;;2.50;;
47882;SDS011;37739;50.350;7.578;2023-03-21T05:51:17;6.10;;;3.30;;
47882;SDS011;37739;50.350;7.578;2023-03-21T05:53:43;5.50;;;2.63;;
47882;SDS011;37739;50.350;7.578;2023-03-21T05:56:08;6.63;;;3.10;;
47882;SDS011;37739;50.350;7.578;2023-03-21T05:58:36;4.77;;;3.00;;
47882;SDS011;37739;50.350;7.578;2023-03-21T06:01:01;6.40;;;3.70;;
47882;SDS011;37739;50.350;7.578;2023-03-21T06:03:27;3.80;;;2.87;;
47882;SDS011;37739;50.350;7.578;2023-03-21T06:05:55;4.80;;;2.63;;
47882;SDS011;37739;50.350;7.578;2023-03-21T06:08:20;5.03;;;2.90;;
47882;SDS011;37739;50.350;7.578;2023-03-21T06:10:45;8.37;;;3.50;;
47882;SDS011;37739;50.350;7.578;2023-03-21T06:13:13;4.90;;;3.20;;
47882;SDS011;37739;50.350;7.578;2023-03-21T06:15:41;5.00;;;2.80;;
47882;SDS011;37739;50.350;7.578;2023-03-21T06:18:08;4.50;;;2.80;;
47882;SDS011;37739;50.350;7.578;2023-03-21T06:20:34;3.80;;;3.03;;
47882;SDS011;37739;50.350;7.578;2023-03-21T06:23:04;3.67;;;2.80;;
47882;SDS011;37739;50.350;7.578;2023-03-21T06:25:32;3.67;;;3.30;;
47882;SDS011;37739;50.350;7.578;2023-03-21T06:27:58;3.60;;;2.63;;
47882;SDS011;37739;50.350;7.578;2023-03-21T06:30:23;4.47;;;3.00;;
47882;SDS011;37739;50.350;7.578;2023-03-21T06:32:48;5.60;;;2.93;;
47882;SDS011;37739;50.350;7.578;2023-03-21T06:35:16;4.10;;;2.60;;
47882;SDS011;37739;50.350;7.578;2023-03-21T06:37:44;5.00;;;3.30;;
47882;SDS011;37739;50.350;7.578;2023-03-21T06:40:10;4.17;;;3.40;;
47882;SDS011;37739;50.350;7.578;2023-03-21T06:42:35;3.37;;;2.67;;
47882;SDS011;37739;50.350;7.578;2023-03-21T06:45:01;3.60;;;3.10;;
47882;SDS011;37739;50.350;7.578;2023-03-21T06:47:27;3.40;;;2.53;;
47882;SDS011;37739;50.350;7.578;2023-03-21T06:49:55;3.53;;;2.90;;
47882;SDS011;37739;50.350;7.578;2023-03-21T06:52:20;4.77;;;2.70;;
47882;SDS011;37739;50.350;7.578;2023-03-21T06:54:46;3.47;;;2.40;;
47882;SDS011;37739;50.350;7.578;2023-03-21T06:57:11;5.20;;;2.50;;
47882;SDS011;37739;50.350;7.578;2023-03-21T06:59:38;4.07;;;2.90;;
47882;SDS011;37739;50.350;7.578;2023-03-21T07:02:05;4.23;;;3.23;;
47882;SDS011;37739;50.350;7.578;2023-03-21T07:04:33;5.43;;;3.47;;
47882;SDS011;37739;50.350;7.578;2023-03-21T07:07:03;7.10;;;3.73;;
47882;SDS011;37739;50.350;7.578;2023-03-21T07:09:31;5.23;;;3.43;;
47882;SDS011;37739;50.350;7.578;2023-03-21T07:11:56;3.97;;;2.97;;
47882;SDS011;37739;50.350;7.578;2023-03-21T07:14:22;5.73;;;4.40;;
47882;SDS011;37739;50.350;7.578;2023-03-21T07:16:47;7.47;;;3.90;;
47882;SDS011;37739;50.350;7.578;2023-03-21T07:19:13;4.20;;;3.20;;
47882;SDS011;37739;50.350;7.578;2023-03-21T07:21:41;4.67;;;2.83;;
47882;SDS011;37739;50.350;7.578;2023-03-21T07:24:06;4.40;;;2.80;;
47882;SDS011;37739;50.350;7.578;2023-03-21T07:26:34;4.30;;;3.30;;
47882;SDS011;37739;50.350;7.578;2023-03-21T07:28:59;3.27;;;2.73;;
47882;SDS011;37739;50.350;7.578;2023-03-21T07:31:27;6.97;;;2.67;;
47882;SDS011;37739;50.350;7.578;2023-03-21T07:33:57;3.63;;;2.90;;
47882;SDS011;37739;50.350;7.578;2023-03-21T07:36:25;5.07;;;2.93;;
47882;SDS011;37739;50.350;7.578;2023-03-21T07:38:52;3.93;;;2.50;;
47882;SDS011;37739;50.350;7.578;2023-03-21T07:41:18;6.70;;;2.90;;
47882;SDS011;37739;50.350;7.578;2023-03-21T07:43:43;4.63;;;2.80;;
47882;SDS011;37739;50.350;7.578;2023-03-21T07:46:10;4.33;;;2.87;;
47882;SDS011;37739;50.350;7.578;2023-03-21T07:48:38;4.33;;;3.57;;
47882;SDS011;37739;50.350;7.578;2023-03-21T07:51:03;5.07;;;2.90;;
47882;SDS011;37739;50.350;7.578;2023-03-21T07:53:32;8.00;;;3.20;;
47882;SDS011;37739;50.350;7.578;2023-03-21T07:55:57;5.37;;;2.93;;
47882;SDS011;37739;50.350;7.578;2023-03-21T07:58:23;3.13;;;2.83;;
47882;SDS011;37739;50.350;7.578;2023-03-21T08:00:52;5.60;;;3.00;;
47882;SDS011;37739;50.350;7.578;2023-03-21T08:03:20;5.60;;;2.50;;
47882;SDS011;37739;50.350;7.578;2023-03-21T08:05:47;4.27;;;2.73;;
47882;SDS011;37739;50.350;7.578;2023-03-21T08:08:13;4.43;;;3.10;;
47882;SDS011;37739;50.350;7.578;2023-03-21T08:10:41;5.10;;;3.73;;
47882;SDS011;37739;50.350;7.578;2023-03-21T08:13:07;6.47;;;3.20;;
47882;SDS011;37739;50.350;7.578;2023-03-21T08:15:37;4.30;;;2.60;;
47882;SDS011;37739;50.350;7.578;2023-03-21T08:18:08;5.23;;;3.80;;
47882;SDS011;37739;50.350;7.578;2023-03-21T08:20:36;5.63;;;3.80;;
47882;SDS011;37739;50.350;7.578;2023-03-21T08:23:05;4.20;;;3.30;;
47882;SDS011;37739;50.350;7.578;2023-03-21T08:25:30;4.23;;;3.00;;
47882;SDS011;37739;50.350;7.578;2023-03-21T08:27:56;4.20;;;3.13;;
47882;SDS011;37739;50.350;7.578;2023-03-21T08:30:22;4.90;;;2.70;;
47882;SDS011;37739;50.350;7.578;2023-03-21T08:32:50;4.60;;;3.80;;
47882;SDS011;37739;50.350;7.578;2023-03-21T08:35:19;8.20;;;3.90;;
47882;SDS011;37739;50.350;7.578;2023-03-21T08:37:45;9.27;;;4.67;;
47882;SDS011;37739;50.350;7.578;2023-03-21T08:40:14;6.87;;;3.57;;
47882;SDS011;37739;50.350;7.578;2023-03-21T08:42:44;5.67;;;3.50;;
47882;SDS011;37739;50.350;7.578;2023-03-21T08:45:13;7.90;;;4.27;;
47882;SDS011;37739;50.350;7.578;2023-03-21T08:47:40;8.00;;;4.03;;
47882;SDS011;37739;50.350;7.578;2023-03-21T08:50:06;4.87;;;3.60;;
47882;SDS011;37739;50.350;7.578;2023-03-21T08:52:38;6.73;;;4.30;;
47882;SDS011;37739;50.350;7.578;2023-03-21T08:55:06;4.10;;;3.23;;
47882;SDS011;37739;50.350;7.578;2023-03-21T08:57:32;4.73;;;3.50;;
47882;SDS011;37739;50.350;7.578;2023-03-21T08:59:57;6.33;;;3.43;;
47882;SDS011;37739;50.350;7.578;2023-03-21T09:02:22;4.03;;;3.47;;
47882;SDS011;37739;50.350;7.578;2023-03-21T09:04:48;6.00;;;3.70;;
47882;SDS011;37739;50.350;7.578;2023-03-21T09:07:18;4.10;;;3.70;;
47882;SDS011;37739;50.350;7.578;2023-03-21T09:09:44;3.93;;;3.50;;
47882;SDS011;37739;50.350;7.578;2023-03-21T09:12:09;5.87;;;3.00;;
47882;SDS011;37739;50.350;7.578;2023-03-21T09:14:35;7.57;;;4.00;;
47882;SDS011;37739;50.350;7.578;2023-03-21T09:17:00;9.07;;;4.03;;
47882;SDS011;37739;50.350;7.578;2023-03-21T09:19:28;5.20;;;3.53;;
47882;SDS011;37739;50.350;7.578;2023-03-21T09:21:55;3.97;;;3.33;;
47882;SDS011;37739;50.350;7.578;2023-03-21T09:24:21;3.67;;;3.37;;
47882;SDS011;37739;50.350;7.578;2023-03-21T09:26:47;5.20;;;4.70;;
47882;SDS011;37739;50.350;7.578;2023-03-21T09:29:17;6.60;;;4.50;;
47882;SDS011;37739;50.350;7.578;2023-03-21T09:31:47;6.60;;;4.93;;
47882;SDS011;37739;50.350;7.578;2023-03-21T09:34:17;6.70;;;4.80;;
47882;SDS011;37739;50.350;7.578;2023-03-21T09:36:44;4.80;;;4.00;;
47882;SDS011;37739;50.350;7.578;2023-03-21T09:39:18;6.33;;;4.80;;
47882;SDS011;37739;50.350;7.578;2023-03-21T09:41:56;4.93;;;4.43;;
47882;SDS011;37739;50.350;7.578;2023-03-21T09:44:32;4.00;;;3.43;;
47882;SDS011;37739;50.350;7.578;2023-03-21T09:47:14;8.80;;;4.90;;
47882;SDS011;37739;50.350;7.578;2023-03-21T09:49:44;4.37;;;3.60;;
47882;SDS011;37739;50.350;7.578;2023-03-21T09:55:04;6.43;;;4.50;;
47882;SDS011;37739;50.350;7.578;2023-03-21T09:57:42;6.57;;;4.70;;
47882;SDS011;37739;50.350;7.578;2023-03-21T10:00:13;6.77;;;4.37;;
47882;SDS011;37739;50.350;7.578;2023-03-21T10:02:50;7.50;;;4.60;;
47882;SDS011;37739;50.350;7.578;2023-03-21T10:05:23;7.57;;;4.87;;
47882;SDS011;37739;50.350;7.578;2023-03-21T10:10:24;5.63;;;4.93;;
47882;SDS011;37739;50.350;7.578;2023-03-21T10:12:54;5.23;;;4.33;;
47882;SDS011;37739;50.350;7.578;2023-03-21T10:15:23;5.80;;;4.70;;
47882;SDS011;37739;50.350;7.578;2023-03-21T10:18:00;7.70;;;4.10;;
47882;SDS011;37739;50.350;7.578;2023-03-21T10:25:40;5.67;;;3.90;;
47882;SDS011;37739;50.350;7.578;2023-03-21T10:28:14;4.40;;;4.00;;
47882;SDS011;37739;50.350;7.578;2023-03-21T10:30:43;5.83;;;3.80;;
47882;SDS011;37739;50.350;7.578;2023-03-21T10:33:14;6.20;;;4.07;;
47882;SDS011;37739;50.350;7.578;2023-03-21T10:35:48;5.77;;;3.90;;
47882;SDS011;37739;50.350;7.578;2023-03-21T10:38:20;5.50;;;3.93;;
47882;SDS011;37739;50.350;7.578;2023-03-21T10:40:51;5.70;;;3.87;;
47882;SDS011;37739;50.350;7.578;2023-03-21T10:45:54;5.83;;;4.03;;
47882;SDS011;37739;50.350;7.578;2023-03-21T10:48:21;6.27;;;4.13;;
47882;SDS011;37739;50.350;7.578;2023-03-21T10:50:48;7.80;;;4.50;;
47882;SDS011;37739;50.350;7.578;2023-03-21T10:53:19;5.00;;;4.43;;
47882;SDS011;37739;50.350;7.578;2023-03-21T10:55:50;6.83;;;3.87;;
47882;SDS011;37739;50.350;7.578;2023-03-21T10:58:24;5.03;;;4.50;;
47882;SDS011;37739;50.350;7.578;2023-03-21T11:00:53;6.77;;;4.33;;
47882;SDS011;37739;50.350;7.578;2023-03-21T11:03:32;5.50;;;4.90;;
47882;SDS011;37739;50.350;7.578;2023-03-21T11:06:10;5.57;;;3.90;;
47882;SDS011;37739;50.350;7.578;2023-03-21T11:08:37;4.57;;;4.00;;
47882;SDS011;37739;50.350;7.578;2023-03-21T11:11:10;6.10;;;4.50;;
47882;SDS011;37739;50.350;7.578;2023-03-21T11:14:23;4.60;;;3.63;;
47882;SDS011;37739;50.350;7.578;2023-03-21T11:16:50;5.30;;;4.17;;
47882;SDS011;37739;50.350;7.578;2023-03-21T11:19:19;5.70;;;4.23;;
47882;SDS011;37739;50.350;7.578;2023-03-21T11:21:56;4.87;;;4.30;;
47882;SDS011;37739;50.350;7.578;2023-03-21T11:24:23;8.57;;;4.40;;
47882;SDS011;37739;50.350;7.578;2023-03-21T11:26:54;6.50;;;4.10;;
47882;SDS011;37739;50.350;7.578;2023-03-21T11:29:28;6.50;;;3.57;;
47882;SDS011;37739;50.350;7.578;2023-03-21T11:31:57;5.53;;;3.80;;
47882;SDS011;37739;50.350;7.578;2023-03-21T11:37:19;7.63;;;3.93;;
47882;SDS011;37739;50.350;7.578;2023-03-21T11:40:35;6.50;;;3.73;;
47882;SDS011;37739;50.350;7.578;2023-03-21T11:42:48;5.07;;;4.17;;
47882;SDS011;37739;50.350;7.578;2023-03-21T11:45:22;5.93;;;3.73;;
47882;SDS011;37739;50.350;7.578;2023-03-21T11:47:56;7.60;;;4.73;;
47882;SDS011;37739;50.350;7.578;2023-03-21T11:55:58;6.70;;;4.43;;
47882;SDS011;37739;50.350;7.578;2023-03-21T12:09:42;5.43;;;4.10;;
47882;SDS011;37739;50.350;7.578;2023-03-21T12:12:18;6.40;;;3.80;;
47882;SDS011;37739;50.350;7.578;2023-03-21T12:26:42;4.90;;;3.53;;
47882;SDS011;37739;50.350;7.578;2023-03-21T12:29:31;2.83;;;2.20;;
47882;SDS011;37739;50.350;7.578;2023-03-21T12:32:08;6.30;;;3.40;;
47882;SDS011;37739;50.350;7.578;2023-03-21T12:34:57;4.47;;;3.10;;
47882;SDS011;37739;50.350;7.578;2023-03-21T12:45:35;6.67;;;3.57;;
47882;SDS011;37739;50.350;7.578;2023-03-21T12:50:40;7.40;;;4.27;;
47882;SDS011;37739;50.350;7.578;2023-03-21T12:53:18;7.10;;;3.90;;
47882;SDS011;37739;50.350;7.578;2023-03-21T12:56:06;4.63;;;4.03;;
47882;SDS011;37739;50.350;7.578;2023-03-21T12:58:46;4.60;;;3.67;;
47882;SDS011;37739;50.350;7.578;2023-03-21T13:01:16;5.53;;;4.13;;
47882;SDS011;37739;50.350;7.578;2023-03-21T13:03:48;7.80;;;5.10;;
47882;SDS011;37739;50.350;7.578;2023-03-21T13:06:21;5.80;;;3.93;;
47882;SDS011;37739;50.350;7.578;2023-03-21T13:08:57;4.20;;;3.27;;
47882;SDS011;37739;50.350;7.578;2023-03-21T13:11:29;5.60;;;4.33;;
47882;SDS011;37739;50.350;7.578;2023-03-21T13:14:00;4.70;;;3.40;;
47882;SDS011;37739;50.350;7.578;2023-03-21T13:19:40;5.97;;;4.10;;
47882;SDS011;37739;50.350;7.578;2023-03-21T13:25:14;6.63;;;4.53;;
47882;SDS011;37739;50.350;7.578;2023-03-21T13:27:46;5.87;;;4.07;;
47882;SDS011;37739;50.350;7.578;2023-03-21T13:30:20;4.43;;;3.27;;
47882;SDS011;37739;50.350;7.578;2023-03-21T13:32:50;5.50;;;3.33;;
47882;SDS011;37739;50.350;7.578;2023-03-21T13:37:49;7.13;;;3.80;;
47882;SDS011;37739;50.350;7.578;2023-03-21T13:46:33;4.07;;;3.67;;
47882;SDS011;37739;50.350;7.578;2023-03-21T13:51:44;4.33;;;3.50;;
47882;SDS011;37739;50.350;7.578;2023-03-21T13:54:17;4.73;;;3.97;;
47882;SDS011;37739;50.350;7.578;2023-03-21T13:59:13;4.67;;;3.50;;
47882;SDS011;37739;50.350;7.578;2023-03-21T14:04:53;4.63;;;3.47;;
47882;SDS011;37739;50.350;7.578;2023-03-21T14:07:28;3.90;;;2.87;;
47882;SDS011;37739;50.350;7.578;2023-03-21T14:10:00;7.23;;;3.80;;
47882;SDS011;37739;50.350;7.578;2023-03-21T14:12:41;3.50;;;3.20;;
47882;SDS011;37739;50.350;7.578;2023-03-21T14:17:53;3.93;;;3.00;;
47882;SDS011;37739;50.350;7.578;2023-03-21T14:20:24;3.20;;;2.90;;
47882;SDS011;37739;50.350;7.578;2023-03-21T14:22:52;4.80;;;3.20;;
47882;SDS011;37739;50.350;7.578;2023-03-21T14:25:19;4.70;;;3.83;;
47882;SDS011;37739;50.350;7.578;2023-03-21T14:27:49;4.07;;;2.93;;
47882;SDS011;37739;50.350;7.578;2023-03-21T14:30:25;3.73;;;2.87;;
47882;SDS011;37739;50.350;7.578;2023-03-21T14:32:55;4.00;;;3.60;;
47882;SDS011;37739;50.350;7.578;2023-03-21T14:35:28;4.77;;;4.27;;
47882;SDS011;37739;50.350;7.578;2023-03-21T14:38:02;4.73;;;3.50;;
47882;SDS011;37739;50.350;7.578;2023-03-21T14:40:33;4.83;;;3.30;;
47882;SDS011;37739;50.350;7.578;2023-03-21T14:43:03;3.60;;;3.17;;
47882;SDS011;37739;50.350;7.578;2023-03-21T14:45:30;4.07;;;3.60;;
47882;SDS011;37739;50.350;7.578;2023-03-21T14:50:31;5.90;;;4.70;;
47882;SDS011;37739;50.350;7.578;2023-03-21T14:53:05;7.00;;;4.50;;
47882;SDS011;37739;50.350;7.578;2023-03-21T14:55:40;3.43;;;3.13;;
47882;SDS011;37739;50.350;7.578;2023-03-21T14:58:10;3.77;;;3.47;;
47882;SDS011;37739;50.350;7.578;2023-03-21T15:00:37;5.00;;;4.00;;
47882;SDS011;37739;50.350;7.578;2023-03-21T15:03:03;4.97;;;3.83;;
47882;SDS011;37739;50.350;7.578;2023-03-21T15:05:32;5.60;;;3.70;;
47882;SDS011;37739;50.350;7.578;2023-03-21T15:08:06;4.67;;;3.83;;
47882;SDS011;37739;50.350;7.578;2023-03-21T15:10:38;5.60;;;3.53;;
47882;SDS011;37739;50.350;7.578;2023-03-21T15:16:00;3.73;;;3.07;;
47882;SDS011;37739;50.350;7.578;2023-03-21T15:18:28;6.53;;;3.93;;
47882;SDS011;37739;50.350;7.578;2023-03-21T15:20:56;4.20;;;3.50;;
47882;SDS011;37739;50.350;7.578;2023-03-21T15:23:30;5.33;;;3.70;;
47882;SDS011;37739;50.350;7.578;2023-03-21T15:26:02;4.53;;;3.50;;
47882;SDS011;37739;50.350;7.578;2023-03-21T15:28:29;5.17;;;4.27;;
47882;SDS011;37739;50.350;7.578;2023-03-21T15:30:55;5.00;;;4.60;;
47882;SDS011;37739;50.350;7.578;2023-03-21T15:33:22;4.20;;;3.87;;
47882;SDS011;37739;50.350;7.578;2023-03-21T15:35:52;4.13;;;3.60;;
47882;SDS011;37739;50.350;7.578;2023-03-21T15:38:20;3.43;;;3.13;;
47882;SDS011;37739;50.350;7.578;2023-03-21T15:40:51;4.67;;;3.67;;
47882;SDS011;37739;50.350;7.578;2023-03-21T15:44:32;4.97;;;4.30;;
47882;SDS011;37739;50.350;7.578;2023-03-21T15:49:23;5.20;;;4.00;;
47882;SDS011;37739;50.350;7.578;2023-03-21T15:54:43;4.50;;;4.10;;
47882;SDS011;37739;50.350;7.578;2023-03-21T15:57:19;6.03;;;4.10;;
47882;SDS011;37739;50.350;7.578;2023-03-21T16:00:02;6.53;;;5.10;;
47882;SDS011;37739;50.350;7.578;2023-03-21T16:02:45;6.27;;;4.27;;
47882;SDS011;37739;50.350;7.578;2023-03-21T16:07:49;6.50;;;4.37;;
47882;SDS011;37739;50.350;7.578;2023-03-21T16:12:52;5.10;;;3.90;;
47882;SDS011;37739;50.350;7.578;2023-03-21T16:15:18;4.50;;;4.07;;
47882;SDS011;37739;50.350;7.578;2023-03-21T16:17:47;4.00;;;3.70;;
47882;SDS011;37739;50.350;7.578;2023-03-21T16:20:25;5.43;;;3.27;;
47882;SDS011;37739;50.350;7.578;2023-03-21T16:22:52;5.00;;;4.10;;
47882;SDS011;37739;50.350;7.578;2023-03-21T16:25:21;6.20;;;5.17;;
47882;SDS011;37739;50.350;7.578;2023-03-21T16:27:49;4.53;;;4.10;;
47882;SDS011;37739;50.350;7.578;2023-03-21T16:30:16;4.70;;;3.97;;
47882;SDS011;37739;50.350;7.578;2023-03-21T16:32:45;6.00;;;4.30;;
47882;SDS011;37739;50.350;7.578;2023-03-21T16:35:13;5.13;;;4.40;;
47882;SDS011;37739;50.350;7.578;2023-03-21T16:37:38;9.70;;;3.77;;
47882;SDS011;37739;50.350;7.578;2023-03-21T16:43:15;4.70;;;3.40;;
47882;SDS011;37739;50.350;7.578;2023-03-21T16:45:43;4.23;;;3.67;;
47882;SDS011;37739;50.350;7.578;2023-03-21T16:48:09;4.50;;;3.70;;
47882;SDS011;37739;50.350;7.578;2023-03-21T16:50:42;4.40;;;3.63;;
47882;SDS011;37739;50.350;7.578;2023-03-21T16:53:10;4.50;;;3.93;;
47882;SDS011;37739;50.350;7.578;2023-03-21T16:55:36;5.07;;;3.90;;
47882;SDS011;37739;50.350;7.578;2023-03-21T16:58:05;5.13;;;4.50;;
47882;SDS011;37739;50.350;7.578;2023-03-21T17:00:34;6.83;;;4.80;;
47882;SDS011;37739;50.350;7.578;2023-03-21T17:03:01;5.60;;;4.70;;
47882;SDS011;37739;50.350;7.578;2023-03-21T17:05:34;3.90;;;3.50;;
47882;SDS011;37739;50.350;7.578;2023-03-21T17:08:04;5.00;;;4.33;;
47882;SDS011;37739;50.350;7.578;2023-03-21T17:10:31;5.07;;;4.57;;
47882;SDS011;37739;50.350;7.578;2023-03-21T17:13:00;4.80;;;4.40;;
47882;SDS011;37739;50.350;7.578;2023-03-21T17:15:27;6.20;;;3.60;;
47882;SDS011;37739;50.350;7.578;2023-03-21T17:17:55;5.47;;;3.70;;
47882;SDS011;37739;50.350;7.578;2023-03-21T17:20:22;3.97;;;3.57;;